MSC Vega — D5BE4 — position and weather

sailwx.info

Track history (hours):
 
Tides and Currents Weather Stations Pressure Air Temp Water Temp Dewpoint Dewpoint Depression Visibility Wind Speed Wind Dir Waves Ship Positions

MSC Vega

Last reported at 2016-May-19 17:16 UTC. Time now 2016-May-25 07:20 UTC.
Position N 24°31' E 119°16'.

Length 366 m; draft 11.1 m.

Type: Ship (hazmat cat A). MMSI: 636015506.

Date/timePositionNaut miles runAvg speedWind from/ knotsBaromVisibWave heightAir tempDewpointWater temp
2016-May-19 17:16N 24°31' E 119°16'4315.7
2016-May-19 14:32N 24°16' E 118°33'1515.3
2016-May-19 13:33N 24°14' E 118°16'1414.5
2016-May-19 12:34N 24°24' E 118°06'5 4.6
2016-May-19 11:32N 24°27' E 118°01'0 0.0
2016-May-19 10:32N 24°27' E 118°01'0 0.0
2016-May-19 09:17N 24°27' E 118°01'0 0.0
2016-May-19 08:29N 24°27' E 118°01'0 0.0
2016-May-19 07:32N 24°27' E 118°01'0 0.0
2016-May-19 06:32N 24°27' E 118°01'0 0.0
2016-May-19 03:14N 24°27' E 118°01'0 0.0
2016-May-19 02:29N 24°27' E 118°01'0 0.0
2016-May-19 01:32N 24°27' E 118°01'0 0.0
2016-May-19 00:32N 24°27' E 118°01'0 0.0
2016-May-18 23:26N 24°27' E 118°01'0 0.0
2016-May-18 22:32N 24°27' E 118°01'0 0.0
2016-May-18 21:26N 24°27' E 118°01'0 0.0
2016-May-18 20:32N 24°27' E 118°01'0 0.0
2016-May-18 19:32N 24°27' E 118°01'0 0.0
2016-May-18 18:29N 24°27' E 118°01'0 0.0
2016-May-18 17:29N 24°27' E 118°01'0 0.0
2016-May-18 16:29N 24°27' E 118°01'1 0.5
2016-May-18 15:33N 24°26' E 118°01'1010.0
2016-May-18 14:33N 24°20' E 118°10'13 2.1
2016-May-18 08:07N 24°11' E 118°21'19 0.9
2016-May-17 10:20N 23°54' E 118°15'  
2016-May-11 23:31N 01°14' E 104°02'1313.1
2016-May-11 22:33N 01°11' E 103°50'7 6.6
2016-May-11 21:32N 01°17' E 103°45'0 0.0
2016-May-11 20:32N 01°17' E 103°45'0 0.1
2016-May-11 19:32N 01°17' E 103°46'0 0.1
2016-May-11 18:29N 01°17' E 103°45'0 0.0
2016-May-11 17:32N 01°17' E 103°45'0 0.0
2016-May-11 16:29N 01°17' E 103°45'0 0.0
2016-May-11 15:32N 01°17' E 103°45'0 0.0
2016-May-11 14:29N 01°17' E 103°45'0 0.0
2016-May-11 13:32N 01°17' E 103°45'0 0.1
2016-May-11 12:26N 01°17' E 103°46'0 0.1
2016-May-11 11:32N 01°17' E 103°45'0 0.0
2016-May-11 10:29N 01°17' E 103°45'0 0.0
2016-May-11 09:32N 01°17' E 103°45'0 0.0
2016-May-11 08:29N 01°17' E 103°45'0 0.0
2016-May-11 07:29N 01°17' E 103°45'0 0.0
2016-May-11 06:29N 01°17' E 103°45'0 0.0
2016-May-11 05:32N 01°17' E 103°45'0 0.0
2016-May-11 04:29N 01°17' E 103°45'1 1.4
2016-May-11 03:33N 01°15' E 103°46'1010.0
2016-May-11 02:34N 01°12' E 103°37'9 9.2
2016-May-11 01:32N 01°10' E 103°28'5115.2
2016-May-10 22:10N 01°38' E 102°45'1514.0
2016-May-10 21:05N 01°45' E 102°31'713.4
2016-May-10 20:33N 01°48' E 102°25'1613.6
2016-May-10 19:22N 01°56' E 102°11'1214.2
2016-May-10 18:31N 02°04' E 102°02'  
Track history (hours):
 
Tides and Currents Weather Stations Pressure Air Temp Water Temp Dewpoint Dewpoint Depression Visibility Wind Speed Wind Dir Waves Ship Positions

MSC Vega

Last reported at 2016-May-19 17:16 UTC. Time now 2016-May-25 07:20 UTC.
Position N 24°31' E 119°16'.

Length 366 m; draft 11.1 m.

Type: Ship (hazmat cat A). MMSI: 636015506.

Date/timePositionNaut miles runAvg speedWind from/ knotsBaromVisibWave heightAir tempDewpointWater temp
2016-May-19 17:16N 24°31' E 119°16'4315.7
2016-May-19 14:32N 24°16' E 118°33'1515.3
2016-May-19 13:33N 24°14' E 118°16'1414.5
2016-May-19 12:34N 24°24' E 118°06'5 4.6
2016-May-19 11:32N 24°27' E 118°01'0 0.0
2016-May-19 10:32N 24°27' E 118°01'0 0.0
2016-May-19 09:17N 24°27' E 118°01'0 0.0
2016-May-19 08:29N 24°27' E 118°01'0 0.0
2016-May-19 07:32N 24°27' E 118°01'0 0.0
2016-May-19 06:32N 24°27' E 118°01'0 0.0
2016-May-19 03:14N 24°27' E 118°01'0 0.0
2016-May-19 02:29N 24°27' E 118°01'0 0.0
2016-May-19 01:32N 24°27' E 118°01'0 0.0
2016-May-19 00:32N 24°27' E 118°01'0 0.0
2016-May-18 23:26N 24°27' E 118°01'0 0.0
2016-May-18 22:32N 24°27' E 118°01'0 0.0
2016-May-18 21:26N 24°27' E 118°01'0 0.0
2016-May-18 20:32N 24°27' E 118°01'0 0.0
2016-May-18 19:32N 24°27' E 118°01'0 0.0
2016-May-18 18:29N 24°27' E 118°01'0 0.0
2016-May-18 17:29N 24°27' E 118°01'0 0.0
2016-May-18 16:29N 24°27' E 118°01'1 0.5
2016-May-18 15:33N 24°26' E 118°01'1010.0
2016-May-18 14:33N 24°20' E 118°10'13 2.1
2016-May-18 08:07N 24°11' E 118°21'19 0.9
2016-May-17 10:20N 23°54' E 118°15'  
2016-May-11 23:31N 01°14' E 104°02'1313.1
2016-May-11 22:33N 01°11' E 103°50'7 6.6
2016-May-11 21:32N 01°17' E 103°45'0 0.0
2016-May-11 20:32N 01°17' E 103°45'0 0.1
2016-May-11 19:32N 01°17' E 103°46'0 0.1
2016-May-11 18:29N 01°17' E 103°45'0 0.0
2016-May-11 17:32N 01°17' E 103°45'0 0.0
2016-May-11 16:29N 01°17' E 103°45'0 0.0
2016-May-11 15:32N 01°17' E 103°45'0 0.0
2016-May-11 14:29N 01°17' E 103°45'0 0.0
2016-May-11 13:32N 01°17' E 103°45'0 0.1
2016-May-11 12:26N 01°17' E 103°46'0 0.1
2016-May-11 11:32N 01°17' E 103°45'0 0.0
2016-May-11 10:29N 01°17' E 103°45'0 0.0
2016-May-11 09:32N 01°17' E 103°45'0 0.0
2016-May-11 08:29N 01°17' E 103°45'0 0.0
2016-May-11 07:29N 01°17' E 103°45'0 0.0
2016-May-11 06:29N 01°17' E 103°45'0 0.0
2016-May-11 05:32N 01°17' E 103°45'0 0.0
2016-May-11 04:29N 01°17' E 103°45'1 1.4
2016-May-11 03:33N 01°15' E 103°46'1010.0
2016-May-11 02:34N 01°12' E 103°37'9 9.2
2016-May-11 01:32N 01°10' E 103°28'5115.2
2016-May-10 22:10N 01°38' E 102°45'1514.0
2016-May-10 21:05N 01°45' E 102°31'713.4
2016-May-10 20:33N 01°48' E 102°25'1613.6
2016-May-10 19:22N 01°56' E 102°11'1214.2
2016-May-10 18:31N 02°04' E 102°02'  

Dump ship's entire track history